La Farge, WI

2:39 PM CDT on July 23, 2014 (GMT -0500)
Sparta-Fort McCoy (KCMY) Elev 837 ft | 43.96 °N, 90.74 °W | Change Station

Current weather conditions updated 24 minutes ago

Scattered Clouds
Scattered Clouds
78 °F
Feels Like 78 °F
N
8
Wind Variable Wind from NNW

Today is forecast to be Much Cooler than yesterday.

Today
High -- | Low -- °F
--% Chance of Precip.
Yesterday
High -- | Low -- °F
Precip. -- in
5:42 AM 8:35 PM
Waning Crescent, 9% visible
Pressure 30.21 in
Visibility 10.0 miles
Clouds Scattered Clouds 6500 ft
Dew Point 52 °F
Humidity 41%
Rainfall 0.00 in
Snow Depth Not available.
UV 8 out of 12
Pollen 6.20 out of 12
Air Quality Not available.
Flu Activity Not available.
METAR KCMY 231915Z AUTO 33007KT 10SM SCT065 26/11 A3021 RMK AO2 T02560114

More Conditions Fewer Conditions

Pressure 30.21 in
Visibility 10.0 miles
Clouds Scattered Clouds 6500 ft
Dew Point 52 °F
Humidity 41%
Rainfall 0.00 in
Snow Depth Not available.
UV 8 out of 12
Pollen 6.20 out of 12
Air Quality Not available.
Flu Activity Not available.
METAR KCMY 231915Z AUTO 33007KT 10SM SCT065 26/11 A3021 RMK AO2 T02560114

More Conditions Fewer Conditions

10-Day Weather Forecast

Almanac

Astronomy

Jul. 23, 2014 Rise Set
Actual Time 5:42 AM CDT 8:35 PM CDT
Civil Twilight 5:08 AM CDT 9:08 PM CDT
Nautical Twilight 4:25 AM CDT 9:51 PM CDT
Astronomical Twilight 3:35 AM CDT 10:41 PM CDT
Moon 3:02 AM CDT 6:03 PM CDT
Length of Visible Light 15h 59m
Length of Day
14h 52m
Tomorrow will be 1m 58s shorter.
Waning Crescent, 9% of the Moon is Illuminated
Today
Waning Crescent
Jul 26
New
Aug 3
First Quarter
Aug 10
Full
Aug 17
Last Quarter

Today's Extremes

State Highs State Lows

Community

WunderPhotos

Upload Photos

1,736,734 photos uploaded!

Nearby

Snow Depth

Station Depth Elevation
No new snow has been reported.

Earthquake Activity

City Distance Mag. Time & Date
No recent earthquake activity has been reported nearby.
Minimum magnitude displayed is 2.5.

Coastal Water Temperatures

Place Temperature
No Stations Reporting

Nearby Weather Stations

Station Location Temp. Heat Index Dew Point Humidity Wind Precip. Elev Updated Type
Haugrud Hollow, La Farge, WI 81.7 °F 82 °F 59 °F 48% SE  at  0.0 mph 0.00 in / hr 940 ft 2:25 PM CDT Normal
Faith Farms Viroqua, Viroqua, WI 74.7 °F 77 °F 59 °F 58% East  at  2.0 mph 0.00 in / hr 1217 ft 2:38 PM CDT Normal
Kendall, Wi., Kendall, WI 80.8 °F 80 °F 46 °F 29% NW  at  9.2 mph 0.00 in / hr 1021 ft 2:39 PM CDT Rapid Fire
Richland Center, WI 78.5 °F 80 °F 58 °F 50% North  at  2.0 mph 0.00 in / hr 741 ft 2:34 PM CDT Normal
Ash Creek, Richland Center, WI 78.5 °F 80 °F 59 °F 52% NNW  at  0.0 mph 0.00 in / hr 732 ft 2:34 PM CDT Normal

Show More Stations Show Fewer Stations